Time;durP1;ratioP1;P1;durP2;ratioP2;P2;SDS_P1;SDS_P2;PMS_P1;PMS_P2;Temp;Humidity;BMP_temperature;BMP_pressure;BME280_temperature;BME280_humidity;BME280_pressure;Samples;Min_cycle;Max_cycle;Signal;HPM_P1;HPM_P2
2022/12/03 00:00:51;;;;;;;11.63;5.40;;;6.20;55.60;;;;;;4981956;28;20395;-50
2022/12/03 00:03:18;;;;;;;8.15;5.15;;;6.20;55.60;;;;;;4982732;28;20050;-51
2022/12/03 00:05:46;;;;;;;8.65;5.40;;;6.20;55.50;;;;;;4983134;28;20061;-54
2022/12/03 00:08:13;;;;;;;9.32;5.50;;;6.20;55.60;;;;;;4981845;28;20066;-54
2022/12/03 00:10:40;;;;;;;8.50;5.47;;;6.20;55.50;;;;;;4981560;28;20046;-54
2022/12/03 00:13:07;;;;;;;12.10;5.45;;;6.20;55.50;;;;;;4985154;28;20065;-54
2022/12/03 00:15:36;;;;;;;9.05;5.53;;;6.20;55.50;;;;;;4984619;28;20046;-54
2022/12/03 00:18:03;;;;;;;9.52;5.55;;;6.20;55.50;;;;;;4983121;28;20081;-55
2022/12/03 00:20:30;;;;;;;7.22;4.85;;;6.20;55.40;;;;;;4982898;28;20069;-55
2022/12/03 00:22:58;;;;;;;8.55;5.22;;;6.20;55.40;;;;;;4982976;28;20422;-54
2022/12/03 00:25:25;;;;;;;8.82;5.25;;;6.20;55.40;;;;;;4979968;28;20080;-54
2022/12/03 00:27:52;;;;;;;8.65;5.25;;;6.20;55.40;;;;;;4983626;28;20058;-55
2022/12/03 00:30:19;;;;;;;9.18;5.35;;;6.10;55.40;;;;;;4979689;28;20422;-55
2022/12/03 00:32:48;;;;;;;9.23;5.47;;;6.20;55.50;;;;;;4983528;28;20422;-55
2022/12/03 00:35:15;;;;;;;7.82;5.03;;;6.10;55.40;;;;;;4984328;28;20058;-54
2022/12/03 00:37:42;;;;;;;9.30;5.78;;;6.10;55.40;;;;;;4982708;28;20509;-54
2022/12/03 00:40:11;;;;;;;10.20;5.45;;;6.20;55.40;;;;;;4982389;28;20054;-53
2022/12/03 00:42:38;;;;;;;8.27;5.50;;;6.10;55.40;;;;;;4982682;28;20054;-55
2022/12/03 00:45:07;;;;;;;7.45;5.00;;;6.10;55.40;;;;;;4979676;28;20081;-54
2022/12/03 00:47:34;;;;;;;10.85;6.10;;;6.10;55.40;;;;;;4985105;28;20417;-55
2022/12/03 00:50:02;;;;;;;8.98;5.47;;;6.10;55.40;;;;;;4982719;28;20038;-55
2022/12/03 00:52:30;;;;;;;9.20;5.63;;;6.20;55.50;;;;;;4981962;28;20082;-54
2022/12/03 00:54:57;;;;;;;9.70;5.70;;;6.10;55.40;;;;;;4980602;28;20061;-54
2022/12/03 00:57:24;;;;;;;10.50;6.03;;;6.10;55.50;;;;;;4982746;28;20515;-52
2022/12/03 00:59:52;;;;;;;8.02;5.00;;;6.10;55.50;;;;;;4983906;28;20050;-54
2022/12/03 01:02:19;;;;;;;10.73;5.60;;;6.10;55.50;;;;;;4981349;28;20055;-51
2022/12/03 01:04:46;;;;;;;10.93;6.15;;;6.10;55.50;;;;;;4982754;28;20054;-52
2022/12/03 01:07:15;;;;;;;11.10;6.15;;;6.20;55.50;;;;;;4982150;28;20050;-52
2022/12/03 01:09:42;;;;;;;11.35;6.55;;;6.10;55.50;;;;;;4980675;28;20054;-55
2022/12/03 01:12:10;;;;;;;12.98;6.60;;;6.20;55.60;;;;;;4980600;28;20065;-55
2022/12/03 01:14:38;;;;;;;11.02;6.78;;;6.10;55.50;;;;;;4982473;28;20414;-54
2022/12/03 01:17:05;;;;;;;12.63;7.18;;;6.10;55.50;;;;;;4981465;28;20057;-54
2022/12/03 01:19:33;;;;;;;13.23;7.57;;;6.20;55.50;;;;;;4978620;28;20038;-54
2022/12/03 01:22:01;;;;;;;14.57;7.50;;;6.10;55.50;;;;;;4979286;28;20050;-52
2022/12/03 01:24:31;;;;;;;13.75;8.10;;;6.10;55.50;;;;;;4979917;28;20490;-55
2022/12/03 01:26:59;;;;;;;13.07;7.70;;;6.10;55.50;;;;;;4980359;28;20057;-54
2022/12/03 01:29:27;;;;;;;15.25;8.68;;;6.10;55.50;;;;;;4980515;28;20509;-51
2022/12/03 01:34:39;;;;;;;14.52;7.90;;;6.10;55.60;;;;;;4987794;28;20076;-54
2022/12/03 01:37:06;;;;;;;14.80;8.00;;;6.10;55.70;;;;;;4979516;28;20054;-53
2022/12/03 01:39:35;;;;;;;14.95;8.57;;;6.10;55.70;;;;;;4982268;28;20062;-53
2022/12/03 01:42:03;;;;;;;16.65;8.65;;;6.10;55.70;;;;;;4981359;28;20058;-55
2022/12/03 01:44:32;;;;;;;16.58;8.50;;;6.10;55.70;;;;;;4983599;28;20053;-52
2022/12/03 01:47:02;;;;;;;14.73;8.73;;;6.10;55.70;;;;;;4978067;28;20142;-54
2022/12/03 01:49:38;;;;;;;17.60;8.95;;;6.10;55.70;;;;;;4982072;28;20054;-54
2022/12/03 01:52:08;;;;;;;18.67;9.70;;;6.10;55.80;;;;;;4980415;28;20058;-52
2022/12/03 01:54:41;;;;;;;14.82;8.90;;;6.10;55.80;;;;;;4981084;28;20408;-55
2022/12/03 01:57:18;;;;;;;18.80;9.75;;;6.10;55.80;;;;;;4981659;28;20502;-50
2022/12/03 01:59:45;;;;;;;18.70;9.45;;;6.10;55.80;;;;;;4983041;28;20529;-54
2022/12/03 02:02:14;;;;;;;16.17;9.38;;;6.10;55.80;;;;;;4978962;28;20367;-55
2022/12/03 02:04:42;;;;;;;16.42;9.70;;;6.10;55.80;;;;;;4981925;28;20379;-55
2022/12/03 02:07:21;;;;;;;16.40;9.25;;;6.10;55.80;;;;;;4981531;28;20402;-54
2022/12/03 02:09:49;;;;;;;16.48;9.80;;;6.10;55.80;;;;;;4981239;28;20474;-54
2022/12/03 02:12:21;;;;;;;19.88;10.00;;;6.10;55.80;;;;;;4979463;28;20058;-54
2022/12/03 02:14:48;;;;;;;18.92;9.48;;;6.20;55.80;;;;;;4982074;28;20058;-55
2022/12/03 02:17:16;;;;;;;19.35;10.65;;;6.20;55.80;;;;;;4981406;28;20058;-55
2022/12/03 02:19:43;;;;;;;18.92;10.63;;;6.10;55.80;;;;;;4981990;28;20054;-55
2022/12/03 02:22:21;;;;;;;19.17;10.98;;;6.10;55.70;;;;;;4979659;28;20050;-53
2022/12/03 02:24:55;;;;;;;19.55;9.68;;;6.10;55.70;;;;;;4980494;28;20058;-48
2022/12/03 02:27:23;;;;;;;;;;;6.10;55.80;;;;;;4982175;28;20054;-52
2022/12/03 02:29:51;;;;;;;20.08;10.25;;;6.20;55.80;;;;;;4980630;28;19945;-52
2022/12/03 02:32:22;;;;;;;18.10;9.63;;;6.20;55.70;;;;;;4979981;28;20070;-54
2022/12/03 02:34:50;;;;;;;18.48;9.55;;;6.20;55.70;;;;;;4982681;28;20054;-54
2022/12/03 02:37:22;;;;;;;17.83;9.75;;;6.20;55.70;;;;;;4976996;28;20051;-54
2022/12/03 02:39:52;;;;;;;19.27;10.70;;;6.10;55.70;;;;;;4979194;28;20058;-52
2022/12/03 02:42:35;;;;;;;18.15;10.70;;;6.10;55.70;;;;;;4979320;28;20051;-51
2022/12/03 02:45:07;;;;;;;20.52;10.15;;;6.10;55.70;;;;;;4983553;28;20057;-54
2022/12/03 02:47:38;;;;;;;19.45;10.52;;;6.10;55.60;;;;;;4982275;28;20061;-55
2022/12/03 02:50:06;;;;;;;20.63;10.63;;;6.10;55.60;;;;;;4978685;28;20065;-54
2022/12/03 02:52:34;;;;;;;20.90;11.00;;;6.10;55.60;;;;;;4978609;28;20066;-53
2022/12/03 02:55:03;;;;;;;20.30;10.73;;;6.20;55.70;;;;;;4980989;28;20057;-47
2022/12/03 02:57:30;;;;;;;19.23;10.70;;;6.10;55.60;;;;;;4981395;28;20050;-54
2022/12/03 02:59:58;;;;;;;18.85;10.57;;;6.20;55.60;;;;;;4983328;28;20422;-54
2022/12/03 03:02:27;;;;;;;18.55;10.48;;;6.20;55.50;;;;;;4980971;28;20062;-54
2022/12/03 03:04:55;;;;;;;17.73;9.98;;;6.20;55.50;;;;;;4983276;28;20058;-55
2022/12/03 03:07:22;;;;;;;18.48;10.73;;;6.20;55.50;;;;;;4982022;28;20059;-55
2022/12/03 03:09:49;;;;;;;17.70;10.18;;;6.20;55.50;;;;;;4978396;28;20070;-54
2022/12/03 03:12:17;;;;;;;20.70;11.13;;;6.20;55.40;;;;;;4975305;28;20054;-54
2022/12/03 03:14:44;;;;;;;19.13;10.38;;;6.20;55.40;;;;;;4986746;28;20065;-55
2022/12/03 03:17:11;;;;;;;18.35;10.50;;;6.20;55.40;;;;;;4984171;28;20050;-54
2022/12/03 03:19:40;;;;;;;19.05;10.93;;;6.20;55.30;;;;;;4985918;28;20173;-54
2022/12/03 03:22:09;;;;;;;20.45;10.48;;;6.20;55.30;;;;;;4983985;28;20051;-54
2022/12/03 03:24:36;;;;;;;25.25;11.75;;;6.20;55.30;;;;;;4983084;28;20529;-54
2022/12/03 03:27:04;;;;;;;19.50;10.23;;;6.10;55.20;;;;;;4983351;28;20050;-48
2022/12/03 03:29:33;;;;;;;19.60;10.35;;;6.20;55.20;;;;;;4964153;28;20507;-55
2022/12/03 03:32:01;;;;;;;19.35;10.85;;;6.20;55.20;;;;;;4981094;28;20403;-55
2022/12/03 03:34:28;;;;;;;17.15;9.80;;;6.20;55.20;;;;;;4982408;28;20058;-55
2022/12/03 03:36:57;;;;;;;20.88;11.02;;;6.20;55.20;;;;;;4979749;28;20053;-55
2022/12/03 03:39:24;;;;;;;19.00;10.63;;;6.20;55.30;;;;;;4979440;28;20510;-53
2022/12/03 03:41:52;;;;;;;20.02;11.23;;;6.20;55.30;;;;;;4981312;28;20050;-55
2022/12/03 03:44:19;;;;;;;18.23;10.57;;;6.20;55.30;;;;;;4983633;28;20046;-54
2022/12/03 03:46:47;;;;;;;17.05;9.82;;;6.20;55.20;;;;;;4979886;28;20490;-51
2022/12/03 03:49:15;;;;;;;19.98;10.90;;;6.20;55.20;;;;;;4985393;28;20062;-55
2022/12/03 03:51:46;;;;;;;18.98;10.60;;;6.20;55.20;;;;;;4977593;28;20058;-50
2022/12/03 03:54:15;;;;;;;20.10;10.73;;;6.20;55.20;;;;;;4980502;28;20061;-55
2022/12/03 03:56:42;;;;;;;18.63;10.38;;;6.20;55.20;;;;;;4982443;28;20050;-52
2022/12/03 03:59:10;;;;;;;20.73;10.90;;;6.20;55.20;;;;;;4985076;28;20061;-55
2022/12/03 04:01:37;;;;;;;16.05;9.35;;;6.20;55.20;;;;;;4980794;28;20046;-55
2022/12/03 04:04:07;;;;;;;19.00;10.73;;;6.20;55.20;;;;;;4974804;28;20057;-55
2022/12/03 04:06:34;;;;;;;17.15;9.68;;;6.20;55.10;;;;;;4978926;28;20061;-54
2022/12/03 04:09:01;;;;;;;17.02;10.05;;;6.20;55.10;;;;;;4983951;28;20054;-55
2022/12/03 04:14:14;;;;;;;17.85;10.02;;;6.20;55.00;;;;;;4943957;28;20054;-51
2022/12/03 04:16:41;;;;;;;18.92;9.98;;;6.20;55.00;;;;;;4981320;28;20057;-55
2022/12/03 04:19:08;;;;;;;15.80;9.10;;;6.20;55.00;;;;;;4981581;28;20054;-54
2022/12/03 04:24:21;;;;;;;19.35;9.88;;;6.20;55.00;;;;;;4987081;28;20061;-55
2022/12/03 04:29:34;;;;;;;17.15;9.80;;;6.20;54.90;;;;;;4991133;28;20061;-55
2022/12/03 04:37:30;;;;;;;18.05;9.80;;;6.20;54.80;;;;;;4982835;28;20061;-54
2022/12/03 04:39:58;;;;;;;17.40;9.75;;;6.20;54.80;;;;;;4980523;28;20089;-55
2022/12/03 04:42:26;;;;;;;13.82;9.00;;;6.20;54.80;;;;;;4979553;28;20058;-54
2022/12/03 04:44:53;;;;;;;19.20;10.68;;;6.20;54.70;;;;;;4984322;28;20521;-52
2022/12/03 04:47:22;;;;;;;15.07;9.18;;;6.20;54.70;;;;;;4982013;28;20065;-52
2022/12/03 04:49:50;;;;;;;19.27;10.95;;;6.20;54.70;;;;;;4980435;28;20058;-52
2022/12/03 04:52:19;;;;;;;18.05;10.10;;;6.20;54.70;;;;;;4978179;28;20061;-50
2022/12/03 04:54:47;;;;;;;17.75;9.95;;;6.20;54.80;;;;;;4973834;28;20054;-56
2022/12/03 04:57:14;;;;;;;19.95;10.70;;;6.10;54.70;;;;;;4979041;28;20065;-51
2022/12/03 04:59:42;;;;;;;17.05;10.00;;;6.20;54.80;;;;;;4980874;28;20398;-54
2022/12/03 05:02:10;;;;;;;16.65;9.18;;;6.10;54.60;;;;;;4975441;28;20054;-54
2022/12/03 05:04:37;;;;;;;14.68;8.68;;;6.10;54.70;;;;;;4982161;28;20065;-55
2022/12/03 05:07:05;;;;;;;17.33;10.10;;;6.10;54.70;;;;;;4979183;28;20050;-53
2022/12/03 05:09:35;;;;;;;15.95;8.85;;;6.10;54.80;;;;;;4979631;28;20050;-55
2022/12/03 05:12:04;;;;;;;15.55;8.98;;;6.10;54.80;;;;;;4979030;28;20051;-51
2022/12/03 05:14:31;;;;;;;34.45;16.73;;;6.10;54.80;;;;;;4982218;28;20495;-54
2022/12/03 05:17:01;;;;;;;44.30;21.15;;;6.10;55.30;;;;;;4976283;28;20061;-55
2022/12/03 05:22:09;;;;;;;18.90;10.70;;;6.10;55.30;;;;;;4976985;28;20094;-54
2022/12/03 05:24:36;;;;;;;15.90;9.18;;;6.10;54.80;;;;;;4978742;28;20058;-55
2022/12/03 05:27:04;;;;;;;13.60;8.57;;;6.10;54.80;;;;;;4983183;28;20070;-55
2022/12/03 05:29:31;;;;;;;13.63;8.50;;;6.10;54.80;;;;;;4980659;28;20063;-55
2022/12/03 05:31:59;;;;;;;15.48;8.93;;;6.10;54.80;;;;;;4979308;28;20054;-53
2022/12/03 05:34:27;;;;;;;14.93;8.80;;;6.10;54.80;;;;;;4978937;28;20058;-54
2022/12/03 05:36:54;;;;;;;16.95;9.13;;;6.10;54.80;;;;;;4981444;28;20050;-49
2022/12/03 05:39:21;;;;;;;14.40;8.40;;;6.10;54.80;;;;;;4982919;28;20069;-54
2022/12/03 05:44:47;;;;;;;15.30;9.00;;;6.10;54.80;;;;;;4941468;28;20574;-55
2022/12/03 05:47:16;;;;;;;13.93;8.05;;;6.10;54.80;;;;;;4936677;28;20055;-55
2022/12/03 05:49:43;;;;;;;16.08;9.05;;;6.10;54.80;;;;;;4956125;28;20050;-55
2022/12/03 05:52:10;;;;;;;68.07;27.35;;;6.10;54.80;;;;;;4975672;28;20073;-54
2022/12/03 05:54:38;;;;;;;40.65;18.58;;;6.10;54.80;;;;;;4982677;28;20058;-55
2022/12/03 05:57:05;;;;;;;26.13;12.68;;;6.10;54.70;;;;;;4976430;28;20054;-55
2022/12/03 05:59:33;;;;;;;18.23;9.70;;;6.10;54.70;;;;;;4983284;28;20054;-55
2022/12/03 06:02:00;;;;;;;16.13;8.93;;;6.10;54.70;;;;;;4977507;28;20050;-55
2022/12/03 06:04:29;;;;;;;13.02;7.78;;;6.10;54.70;;;;;;4981395;28;20058;-55
2022/12/03 06:06:56;;;;;;;14.23;8.40;;;6.10;54.80;;;;;;4973968;28;20050;-55
2022/12/03 06:09:23;;;;;;;15.10;8.88;;;6.10;54.80;;;;;;4979226;28;20069;-56
2022/12/03 06:11:52;;;;;;;13.07;8.32;;;6.00;54.70;;;;;;4980569;28;20057;-54
2022/12/03 06:14:20;;;;;;;16.55;8.60;;;6.10;54.80;;;;;;4982365;28;20058;-54
2022/12/03 06:16:47;;;;;;;13.43;7.60;;;6.10;54.80;;;;;;4978785;28;20081;-54
2022/12/03 06:19:14;;;;;;;14.43;8.75;;;6.10;54.80;;;;;;4978401;28;20054;-55
2022/12/03 06:21:43;;;;;;;138.43;50.05;;;6.10;54.90;;;;;;4977625;28;20058;-51
2022/12/03 06:24:10;;;;;;;154.43;58.78;;;6.00;54.80;;;;;;4976125;28;20108;-54
2022/12/03 06:26:37;;;;;;;49.83;21.98;;;6.10;54.90;;;;;;4978262;28;20066;-55
2022/12/03 06:29:04;;;;;;;22.02;11.52;;;6.10;54.90;;;;;;4979496;28;20065;-55
2022/12/03 06:31:32;;;;;;;13.48;7.85;;;6.10;54.80;;;;;;4980574;28;20066;-55
2022/12/03 06:33:59;;;;;;;13.88;8.20;;;6.10;54.80;;;;;;4976319;28;20065;-55
2022/12/03 06:36:26;;;;;;;13.60;7.80;;;6.10;54.80;;;;;;4981069;28;20077;-55
2022/12/03 06:38:55;;;;;;;13.38;8.43;;;6.10;54.80;;;;;;4979511;28;20078;-50
2022/12/03 06:41:22;;;;;;;12.85;7.78;;;6.00;54.80;;;;;;4979223;28;20056;-55
2022/12/03 06:43:49;;;;;;;14.88;8.20;;;6.10;54.80;;;;;;4977623;28;20054;-54
2022/12/03 06:46:16;;;;;;;12.05;7.85;;;6.10;54.80;;;;;;4976388;28;20077;-56
2022/12/03 06:48:44;;;;;;;14.38;7.63;;;6.10;54.80;;;;;;4982182;28;20054;-55
2022/12/03 06:51:11;;;;;;;14.57;8.10;;;6.10;54.90;;;;;;4986186;28;20478;-56
2022/12/03 06:53:38;;;;;;;14.18;7.85;;;6.10;54.90;;;;;;4982887;28;20077;-55
2022/12/03 06:56:07;;;;;;;14.05;7.60;;;6.10;55.00;;;;;;4985525;28;20046;-56
2022/12/03 06:58:34;;;;;;;13.05;7.95;;;6.10;55.00;;;;;;4982499;28;20622;-56
2022/12/03 07:01:02;;;;;;;14.75;8.32;;;6.10;55.00;;;;;;4983095;28;20054;-56
2022/12/03 07:03:29;;;;;;;11.85;7.45;;;6.10;55.00;;;;;;4979953;28;20490;-55
2022/12/03 07:05:56;;;;;;;14.50;9.07;;;6.10;55.00;;;;;;4982505;28;20054;-55
2022/12/03 07:08:23;;;;;;;17.40;9.20;;;6.10;55.00;;;;;;4982635;28;20501;-50
2022/12/03 07:10:50;;;;;;;16.17;8.63;;;6.10;55.00;;;;;;4981696;28;20046;-55
2022/12/03 07:13:19;;;;;;;17.73;9.95;;;6.10;55.00;;;;;;4985539;28;20062;-55
2022/12/03 07:15:46;;;;;;;16.73;8.55;;;6.10;55.00;;;;;;4985649;28;20458;-56
2022/12/03 07:18:13;;;;;;;13.38;7.72;;;6.10;54.90;;;;;;4983501;28;20065;-56
2022/12/03 07:20:41;;;;;;;12.52;7.40;;;6.10;54.90;;;;;;4977488;28;20059;-56
2022/12/03 07:23:08;;;;;;;12.35;7.60;;;6.10;55.00;;;;;;4981032;28;20093;-56
2022/12/03 07:25:35;;;;;;;13.95;8.18;;;6.10;55.10;;;;;;4986455;28;20391;-57
2022/12/03 07:28:02;;;;;;;12.90;7.70;;;6.00;55.10;;;;;;4983849;28;20054;-57
2022/12/03 07:30:31;;;;;;;13.35;7.68;;;6.00;55.10;;;;;;4985219;28;20050;-56
2022/12/03 07:32:58;;;;;;;13.50;7.97;;;6.00;55.10;;;;;;4984514;28;20058;-56
2022/12/03 07:35:25;;;;;;;13.07;7.93;;;6.00;55.10;;;;;;4985689;28;20058;-56
2022/12/03 07:37:53;;;;;;;12.27;7.68;;;6.10;55.60;;;;;;4970013;28;20565;-57
2022/12/03 07:40:20;;;;;;;12.60;7.72;;;6.00;55.10;;;;;;4980332;28;20061;-53
2022/12/03 07:42:47;;;;;;;14.43;8.05;;;6.00;55.10;;;;;;4981539;28;20494;-54
2022/12/03 07:45:14;;;;;;;13.10;7.90;;;6.10;55.10;;;;;;4986434;28;20058;-56
2022/12/03 07:47:43;;;;;;;15.50;8.85;;;6.00;55.10;;;;;;4984317;28;20837;-56
2022/12/03 07:50:11;;;;;;;14.75;8.00;;;6.10;55.10;;;;;;4985147;28;20065;-53
2022/12/03 07:52:38;;;;;;;13.70;8.10;;;6.10;55.10;;;;;;4983815;28;20387;-56
2022/12/03 07:55:06;;;;;;;14.43;8.65;;;6.10;55.10;;;;;;4985467;28;20050;-56
2022/12/03 07:57:33;;;;;;;13.15;8.27;;;6.10;55.10;;;;;;4980562;28;21157;-57
2022/12/03 08:00:01;;;;;;;13.02;8.10;;;6.10;55.10;;;;;;4980956;28;20054;-54
2022/12/03 08:02:28;;;;;;;14.02;8.30;;;6.10;55.10;;;;;;4980759;28;20062;-56
2022/12/03 08:04:57;;;;;;;14.43;8.35;;;6.10;55.10;;;;;;4982507;28;20589;-56
2022/12/03 08:07:24;;;;;;;13.30;8.55;;;6.10;55.10;;;;;;4983566;28;20061;-52
2022/12/03 08:09:51;;;;;;;18.02;8.73;;;6.10;55.00;;;;;;4980855;28;20400;-54
2022/12/03 08:12:23;;;;;;;15.05;8.25;;;6.10;55.00;;;;;;4984075;28;20054;-56
2022/12/03 08:14:51;;;;;;;14.68;8.20;;;6.10;55.00;;;;;;4984407;28;20065;-56
2022/12/03 08:17:20;;;;;;;17.00;9.25;;;6.10;55.00;;;;;;4983202;28;20414;-52
2022/12/03 08:19:47;;;;;;;17.38;9.30;;;6.10;55.00;;;;;;4981814;28;20058;-56
2022/12/03 08:22:16;;;;;;;16.80;9.27;;;6.10;55.10;;;;;;4979750;28;20061;-56
2022/12/03 08:24:43;;;;;;;15.50;9.27;;;6.10;55.10;;;;;;4982542;28;20050;-56
2022/12/03 08:27:18;;;;;;;14.25;8.27;;;6.10;55.10;;;;;;4981245;28;20066;-56
2022/12/03 08:29:45;;;;;;;16.60;9.75;;;6.10;55.10;;;;;;4983331;28;20058;-56
2022/12/03 08:32:13;;;;;;;16.90;9.98;;;6.10;55.10;;;;;;4982960;28;20069;-56
2022/12/03 08:34:42;;;;;;;17.05;9.50;;;6.10;55.00;;;;;;4985176;28;20061;-55
2022/12/03 08:37:15;;;;;;;15.40;9.27;;;6.10;55.00;;;;;;4981195;28;20062;-56
2022/12/03 08:39:48;;;;;;;16.38;8.80;;;6.10;55.00;;;;;;4976955;28;20054;-54
2022/12/03 08:45:33;;;;;;;28.15;13.70;;;6.10;54.90;;;;;;4986737;28;20060;-56
2022/12/03 08:48:05;;;;;;;17.90;10.23;;;6.10;54.90;;;;;;4981579;28;20050;-56
2022/12/03 08:50:36;;;;;;;16.67;9.43;;;6.10;55.00;;;;;;4981582;28;20054;-56
2022/12/03 08:53:20;;;;;;;17.40;9.90;;;6.10;54.90;;;;;;4977967;28;20046;-55
2022/12/03 08:55:51;;;;;;;;;;;6.10;54.90;;;;;;4980688;28;20065;-55
2022/12/03 08:58:23;;;;;;;16.15;9.05;;;6.10;55.00;;;;;;4983761;28;20305;-56
2022/12/03 09:01:00;;;;;;;15.48;9.68;;;6.10;54.80;;;;;;4983163;28;20057;-54
2022/12/03 09:03:30;;;;;;;19.73;10.57;;;6.10;54.80;;;;;;4982476;28;20054;-54
2022/12/03 09:05:57;;;;;;;16.17;9.98;;;6.10;54.80;;;;;;4979216;28;20058;-56
2022/12/03 09:08:25;;;;;;;18.38;10.65;;;6.10;54.80;;;;;;4978006;28;20050;-56
2022/12/03 09:10:53;;;;;;;17.67;10.30;;;6.10;54.80;;;;;;4979621;28;20054;-56
2022/12/03 09:13:21;;;;;;;17.52;10.38;;;6.10;55.10;;;;;;4981157;28;20410;-50
2022/12/03 09:15:48;;;;;;;17.77;9.63;;;6.10;54.90;;;;;;4981951;28;20058;-54
2022/12/03 09:18:15;;;;;;;17.85;10.38;;;6.10;54.90;;;;;;4983436;28;20058;-55
2022/12/03 09:20:42;;;;;;;18.73;10.40;;;6.10;54.90;;;;;;4977824;28;20055;-53
2022/12/03 09:23:09;;;;;;;18.33;10.75;;;6.10;54.80;;;;;;4981968;28;20058;-53
2022/12/03 09:25:37;;;;;;;27.98;12.43;;;6.10;54.80;;;;;;4982800;28;20050;-55
2022/12/03 09:28:05;;;;;;;19.52;11.30;;;6.10;54.80;;;;;;4981683;28;20055;-56
2022/12/03 09:30:32;;;;;;;19.98;11.00;;;6.10;54.70;;;;;;4978243;28;20061;-57
2022/12/03 09:33:00;;;;;;;18.67;11.18;;;6.20;54.80;;;;;;4982730;28;20510;-56
2022/12/03 09:35:27;;;;;;;19.90;11.32;;;6.20;54.80;;;;;;4982422;28;20065;-56
2022/12/03 09:37:54;;;;;;;19.33;11.73;;;6.20;54.80;;;;;;4981059;28;20054;-55
2022/12/03 09:40:22;;;;;;;18.08;10.02;;;6.20;54.70;;;;;;4980595;28;22053;-49
2022/12/03 09:42:50;;;;;;;20.17;11.55;;;6.20;54.70;;;;;;4976959;28;20054;-49
2022/12/03 09:45:19;;;;;;;21.38;12.18;;;6.20;54.70;;;;;;4978085;28;20050;-55
2022/12/03 09:47:48;;;;;;;21.00;12.52;;;6.20;54.80;;;;;;4980343;28;20548;-52
2022/12/03 09:50:20;;;;;;;18.67;11.13;;;6.20;54.70;;;;;;4979290;28;20050;-54
2022/12/03 09:52:48;;;;;;;19.58;11.07;;;6.20;54.70;;;;;;4976555;28;20565;-53
2022/12/03 09:55:18;;;;;;;20.52;11.80;;;6.20;54.70;;;;;;4980222;28;20514;-55
2022/12/03 09:57:45;;;;;;;22.05;12.15;;;6.20;54.80;;;;;;4981586;28;20418;-54
2022/12/03 10:00:17;;;;;;;20.40;12.23;;;6.20;54.80;;;;;;4980588;28;20611;-55
2022/12/03 10:02:47;;;;;;;20.13;12.05;;;6.20;54.80;;;;;;4974887;28;20065;-49
2022/12/03 10:05:15;;;;;;;22.20;12.95;;;6.20;54.80;;;;;;4978956;28;20057;-55
2022/12/03 10:07:42;;;;;;;19.88;11.68;;;6.20;54.80;;;;;;4978132;28;20050;-54
2022/12/03 10:10:16;;;;;;;20.02;11.63;;;6.20;54.70;;;;;;4981167;28;20050;-54
2022/12/03 10:12:43;;;;;;;23.13;12.80;;;6.30;54.80;;;;;;4979487;28;20046;-54
2022/12/03 10:15:13;;;;;;;22.73;12.93;;;6.30;54.80;;;;;;4981422;28;21383;-56
2022/12/03 10:17:41;;;;;;;24.30;13.20;;;6.30;54.80;;;;;;4981371;28;20073;-56
2022/12/03 10:20:13;;;;;;;22.40;12.77;;;6.30;54.70;;;;;;5184281;23;20076;-52
2022/12/03 10:22:41;;;;;;;24.80;14.15;;;6.30;54.70;;;;;;4994277;28;20054;-56
2022/12/03 10:25:13;;;;;;;26.13;14.15;;;6.30;54.80;;;;;;4998419;28;21683;-55
2022/12/03 10:27:41;;;;;;;22.63;12.48;;;6.30;54.70;;;;;;4996963;28;20057;-55
2022/12/03 10:30:16;;;;;;;25.63;13.80;;;6.30;54.70;;;;;;4997658;28;20055;-54
2022/12/03 10:32:45;;;;;;;22.45;13.25;;;6.30;54.70;;;;;;4995910;28;20060;-55
2022/12/03 10:35:16;;;;;;;28.73;14.57;;;6.30;54.70;;;;;;4991937;28;20046;-57
2022/12/03 10:37:58;;;;;;;23.30;13.43;;;6.30;54.70;;;;;;4994272;28;20054;-55
2022/12/03 10:40:27;;;;;;;26.50;14.02;;;6.30;54.60;;;;;;4994761;28;20058;-52
2022/12/03 10:43:13;;;;;;;26.80;14.20;;;6.30;54.70;;;;;;4994839;28;20050;-48
2022/12/03 10:45:41;;;;;;;28.88;15.45;;;6.30;54.60;;;;;;4994835;28;20058;-49
2022/12/03 10:48:14;;;;;;;27.55;14.77;;;6.40;54.70;;;;;;4998567;28;20058;-56
2022/12/03 10:50:53;;;;;;;29.05;14.77;;;6.40;54.60;;;;;;4989293;28;20058;-55
2022/12/03 10:53:22;;;;;;;27.30;14.55;;;6.40;54.60;;;;;;4988709;28;20058;-51
2022/12/03 10:55:57;;;;;;;27.63;14.38;;;6.40;54.70;;;;;;4989220;28;20061;-54
2022/12/03 10:58:30;;;;;;;27.13;14.25;;;6.40;54.70;;;;;;4991898;28;20440;-54
2022/12/03 11:00:59;;;;;;;28.45;15.65;;;6.40;54.60;;;;;;4991093;28;20054;-56
2022/12/03 11:03:29;;;;;;;30.92;16.15;;;6.40;54.60;;;;;;5190096;23;20062;-44
2022/12/03 11:06:00;;;;;;;29.50;15.57;;;6.40;54.60;;;;;;4979869;28;20573;-43
2022/12/03 11:08:31;;;;;;;28.77;15.00;;;6.40;54.60;;;;;;4961644;28;20429;-47
2022/12/03 11:11:01;;;;;;;29.20;16.02;;;6.40;54.60;;;;;;4978678;28;20061;-43
2022/12/03 11:13:53;;;;;;;30.02;16.50;;;6.40;54.60;;;;;;4972024;28;20058;-49
2022/12/03 11:17:07;;;;;;;33.70;17.10;;;6.40;54.60;;;;;;4959313;28;20573;-45
2022/12/03 11:19:49;;;;;;;28.63;15.82;;;6.50;54.60;;;;;;4977923;28;20054;-43
2022/12/03 11:22:33;;;;;;;30.67;16.27;;;6.50;54.60;;;;;;4973863;28;20057;-48
2022/12/03 11:25:37;;;;;;;31.58;17.48;;;6.50;54.60;;;;;;4978695;28;20062;-46
2022/12/03 11:28:34;;;;;;;31.13;15.80;;;6.50;54.50;;;;;;4978524;28;20046;-49
2022/12/03 11:31:07;;;;;;;32.38;17.73;;;6.50;54.50;;;;;;4929199;28;20096;-44
2022/12/03 11:33:37;;;;;;;31.77;16.70;;;6.50;54.60;;;;;;4951593;28;20449;-45
2022/12/03 11:36:19;;;;;;;33.40;17.50;;;6.50;54.50;;;;;;4959951;28;20058;-49
2022/12/03 11:38:57;;;;;;;31.92;17.92;;;6.50;54.50;;;;;;4959970;28;20863;-46
2022/12/03 11:41:30;;;;;;;32.50;17.48;;;6.50;54.40;;;;;;4960939;28;20051;-48
2022/12/03 11:44:04;;;;;;;37.00;18.25;;;6.50;54.40;;;;;;4967180;28;20403;-47
2022/12/03 11:46:42;;;;;;;34.00;18.30;;;6.50;54.40;;;;;;4965993;28;20054;-42
2022/12/03 11:49:28;;;;;;;38.78;18.48;;;6.50;54.40;;;;;;4963102;28;20051;-48
2022/12/03 11:51:56;;;;;;;34.72;18.33;;;6.50;54.30;;;;;;4959939;28;20057;-47
2022/12/03 11:54:25;;;;;;;33.60;18.13;;;6.50;54.30;;;;;;4960714;28;20061;-46
2022/12/03 11:56:54;;;;;;;35.03;18.05;;;6.50;54.30;;;;;;4958913;28;20047;-46
2022/12/03 11:59:23;;;;;;;35.88;18.65;;;6.50;54.30;;;;;;4965942;28;20418;-47
2022/12/03 12:01:50;;;;;;;35.28;18.17;;;6.50;54.30;;;;;;4961680;28;20057;-47
2022/12/03 12:04:30;;;;;;;36.20;18.55;;;6.50;54.40;;;;;;4976893;28;20081;-44
2022/12/03 12:06:57;;;;;;;35.22;18.63;;;6.50;54.40;;;;;;4982171;28;20062;-44
2022/12/03 12:09:54;;;;;;;37.90;19.13;;;6.50;54.40;;;;;;4984236;28;20054;-42
2022/12/03 12:12:29;;;;;;;34.75;17.90;;;6.50;54.40;;;;;;4983244;28;20050;-43
2022/12/03 12:14:57;;;;;;;38.88;19.27;;;6.50;54.40;;;;;;4982584;28;20061;-45
2022/12/03 12:17:33;;;;;;;39.63;19.50;;;6.50;54.40;;;;;;4978852;28;20058;-48
2022/12/03 12:20:23;;;;;;;37.05;18.95;;;6.60;54.40;;;;;;4985791;28;20062;-47
2022/12/03 12:22:50;;;;;;;38.75;19.23;;;6.50;54.40;;;;;;4983787;28;20062;-45
2022/12/03 12:25:41;;;;;;;34.58;18.17;;;6.60;54.50;;;;;;4991515;28;20383;-46
2022/12/03 12:28:08;;;;;;;41.22;19.77;;;6.60;54.40;;;;;;4983390;28;20062;-42
2022/12/03 12:30:35;;;;;;;40.25;20.42;;;6.60;54.40;;;;;;4985377;28;20061;-45
2022/12/03 12:33:14;;;;;;;38.47;19.52;;;6.60;54.40;;;;;;4978728;28;20069;-44
2022/12/03 12:35:41;;;;;;;36.03;18.73;;;6.60;54.40;;;;;;4984239;28;20943;-46
2022/12/03 12:38:18;;;;;;;38.30;19.48;;;6.60;54.50;;;;;;4984229;28;20058;-46
2022/12/03 12:40:49;;;;;;;36.08;19.48;;;6.60;54.50;;;;;;4982094;28;20050;-49
2022/12/03 12:43:23;;;;;;;38.05;18.88;;;6.60;54.50;;;;;;4983355;28;20081;-48
2022/12/03 12:45:52;;;;;;;80.90;33.10;;;6.60;54.50;;;;;;4980008;28;20433;-46
2022/12/03 12:48:25;;;;;;;56.30;24.42;;;6.60;55.00;;;;;;4979881;28;20073;-43
2022/12/03 12:50:58;;;;;;;41.90;21.33;;;6.60;54.60;;;;;;4990589;28;20054;-49
2022/12/03 12:53:27;;;;;;;36.85;19.02;;;6.60;54.60;;;;;;4981352;28;20497;-44
2022/12/03 12:55:58;;;;;;;38.88;19.65;;;6.60;54.60;;;;;;4971111;28;20540;-43
2022/12/03 12:58:29;;;;;;;38.05;19.55;;;6.60;54.60;;;;;;4983660;28;20065;-56
2022/12/03 13:00:58;;;;;;;36.70;20.05;;;6.70;54.70;;;;;;4982256;28;20049;-56
2022/12/03 13:03:41;;;;;;;35.78;18.95;;;6.70;54.70;;;;;;4960942;28;20141;-56
2022/12/03 13:06:11;;;;;;;35.15;19.05;;;6.70;54.70;;;;;;4987868;28;20065;-55
2022/12/03 13:08:42;;;;;;;35.40;19.33;;;6.70;54.70;;;;;;4983062;28;20054;-56
2022/12/03 13:11:28;;;;;;;41.00;20.45;;;6.70;54.70;;;;;;4988475;28;20054;-56
2022/12/03 13:13:56;;;;;;;37.78;19.58;;;6.70;54.70;;;;;;4983718;28;20062;-56
2022/12/03 13:16:28;;;;;;;37.75;20.08;;;6.70;54.70;;;;;;5001286;28;20057;-50
2022/12/03 13:18:57;;;;;;;41.00;20.35;;;6.80;54.70;;;;;;5003035;28;20070;-56
2022/12/03 13:21:36;;;;;;;43.78;21.42;;;6.80;54.70;;;;;;4999878;28;20049;-53